Time;durP1;ratioP1;P1;durP2;ratioP2;P2;SDS_P1;SDS_P2;PMS_P1;PMS_P2;Temp;Humidity;BMP_temperature;BMP_pressure;BME280_temperature;BME280_humidity;BME280_pressure;Samples;Min_cycle;Max_cycle;Signal;HPM_P1;HPM_P2
2022/04/04 00:00:07;;;;;;;6.95;2.45;;;;;;;;;;5030228;28;20113;-61
2022/04/04 00:02:32;;;;;;;4.03;2.13;;;;;;;;;;5033203;28;20501;-62
2022/04/04 00:04:58;;;;;;;4.75;2.17;;;;;;;;;;5033115;28;20033;-61
2022/04/04 00:07:23;;;;;;;4.18;2.03;;;;;;;;;;5033226;28;20524;-61
2022/04/04 00:09:49;;;;;;;6.25;2.05;;;;;;;;;;5033116;28;20033;-61
2022/04/04 00:12:16;;;;;;;3.10;1.67;;;;;;;;;;5033102;28;20116;-61
2022/04/04 00:14:41;;;;;;;4.82;1.88;;;;;;;;;;5032936;28;20371;-62
2022/04/04 00:17:07;;;;;;;3.28;1.80;;;;;;;;;;5032836;28;20033;-61
2022/04/04 00:19:32;;;;;;;5.85;2.10;;;;;;;;;;5031809;28;20502;-62
2022/04/04 00:21:58;;;;;;;5.25;2.10;;;;;;;;;;5032882;28;20116;-61
2022/04/04 00:24:24;;;;;;;4.68;2.20;;;;;;;;;;5032959;28;20021;-61
2022/04/04 00:26:50;;;;;;;4.38;2.17;;;;;;;;;;5032862;28;20029;-63
2022/04/04 00:29:15;;;;;;;6.55;1.90;;;;;;;;;;5032646;28;20034;-62
2022/04/04 00:31:41;;;;;;;4.85;1.95;;;;;;;;;;5032834;28;20036;-62
2022/04/04 00:34:06;;;;;;;3.70;1.90;;;;;;;;;;5032842;28;20344;-61
2022/04/04 00:36:32;;;;;;;4.60;2.45;;;;;;;;;;5032687;28;20038;-62
2022/04/04 00:38:57;;;;;;;3.05;1.83;;;;;;;;;;5032656;28;20520;-62
2022/04/04 00:41:23;;;;;;;5.70;2.22;;;;;;;;;;5032603;28;20025;-62
2022/04/04 00:43:52;;;;;;;4.57;2.10;;;;;;;;;;5032506;28;20029;-61
2022/04/04 00:46:19;;;;;;;2.97;1.90;;;;;;;;;;5032737;28;20404;-62
2022/04/04 00:48:45;;;;;;;5.90;2.38;;;;;;;;;;5032553;28;20135;-61
2022/04/04 00:51:10;;;;;;;3.88;1.88;;;;;;;;;;5032644;28;20063;-60
2022/04/04 00:53:36;;;;;;;4.38;2.10;;;;;;;;;;5032601;28;20485;-62
2022/04/04 00:56:02;;;;;;;3.50;2.08;;;;;;;;;;5032642;28;20033;-63
2022/04/04 00:58:31;;;;;;;4.47;2.03;;;;;;;;;;5032330;28;20025;-61
2022/04/04 01:00:58;;;;;;;6.07;2.75;;;;;;;;;;5032500;28;20470;-61
2022/04/04 01:03:24;;;;;;;3.40;1.83;;;;;;;;;;5032476;28;20036;-61
2022/04/04 01:05:49;;;;;;;6.25;2.35;;;;;;;;;;5032491;28;20030;-62
2022/04/04 01:08:15;;;;;;;3.25;2.13;;;;;;;;;;5032454;28;20471;-63
2022/04/04 01:10:42;;;;;;;4.40;2.00;;;;;;;;;;5032606;28;20025;-62
2022/04/04 01:13:12;;;;;;;4.65;2.10;;;;;;;;;;5032190;28;20044;-59
2022/04/04 01:15:38;;;;;;;5.07;2.08;;;;;;;;;;5032328;28;20478;-62
2022/04/04 01:18:05;;;;;;;7.63;2.55;;;;;;;;;;5032336;28;20102;-61
2022/04/04 01:20:31;;;;;;;3.65;2.00;;;;;;;;;;5032077;28;20080;-61
2022/04/04 01:22:57;;;;;;;4.00;2.20;;;;;;;;;;5032171;28;20025;-62
2022/04/04 01:25:28;;;;;;;4.75;2.50;;;;;;;;;;5032352;28;20037;-60
2022/04/04 01:27:55;;;;;;;4.47;2.50;;;;;;;;;;5032032;28;20128;-62
2022/04/04 01:30:24;;;;;;;4.68;2.30;;;;;;;;;;5032983;28;20421;-60
2022/04/04 01:32:50;;;;;;;7.25;2.35;;;;;;;;;;5036037;28;20033;-61
2022/04/04 01:35:19;;;;;;;4.25;2.03;;;;;;;;;;5036086;28;20411;-60
2022/04/04 01:37:46;;;;;;;4.10;2.13;;;;;;;;;;5036039;28;20021;-60
2022/04/04 01:40:12;;;;;;;5.75;2.45;;;;;;;;;;5036102;28;20382;-61
2022/04/04 01:42:38;;;;;;;3.78;2.00;;;;;;;;;;5035570;28;20026;-60
2022/04/04 01:45:05;;;;;;;7.15;2.28;;;;;;;;;;5035820;28;20025;-60
2022/04/04 01:47:32;;;;;;;6.07;2.22;;;;;;;;;;5035711;28;20025;-60
2022/04/04 01:49:57;;;;;;;9.75;2.55;;;;;;;;;;5035821;28;20021;-62
2022/04/04 01:52:23;;;;;;;7.35;2.10;;;;;;;;;;5035669;28;20395;-61
2022/04/04 01:54:49;;;;;;;3.97;2.25;;;;;;;;;;5035528;28;20033;-59
2022/04/04 01:57:14;;;;;;;5.10;2.20;;;;;;;;;;5035432;28;20030;-61
2022/04/04 01:59:40;;;;;;;4.45;2.30;;;;;;;;;;5035413;28;20475;-62
2022/04/04 02:02:06;;;;;;;6.43;2.33;;;;;;;;;;5035436;28;20340;-62
2022/04/04 02:04:32;;;;;;;3.40;2.30;;;;;;;;;;5034162;28;20025;-62
2022/04/04 02:06:57;;;;;;;3.13;2.00;;;;;;;;;;5035419;28;20030;-62
2022/04/04 02:09:23;;;;;;;3.17;2.33;;;;;;;;;;5035368;28;20033;-63
2022/04/04 02:11:48;;;;;;;4.18;2.25;;;;;;;;;;5035033;28;20060;-62
2022/04/04 02:14:15;;;;;;;5.25;1.65;;;;;;;;;;5035286;28;20486;-61
2022/04/04 02:16:42;;;;;;;3.55;2.20;;;;;;;;;;5035335;28;20151;-62
2022/04/04 02:19:08;;;;;;;3.45;2.13;;;;;;;;;;5034626;28;20102;-61
2022/04/04 02:21:34;;;;;;;4.90;2.15;;;;;;;;;;5034999;28;20184;-60
2022/04/04 02:23:59;;;;;;;4.70;2.20;;;;;;;;;;5035198;28;20192;-60
2022/04/04 02:26:25;;;;;;;3.88;2.05;;;;;;;;;;5034906;28;20044;-62
2022/04/04 02:28:50;;;;;;;3.38;1.85;;;;;;;;;;5034974;28;20422;-61
2022/04/04 02:31:16;;;;;;;5.03;1.80;;;;;;;;;;5034869;28;20037;-61
2022/04/04 02:33:42;;;;;;;6.30;2.40;;;;;;;;;;5034860;28;20017;-61
2022/04/04 02:36:08;;;;;;;4.10;2.00;;;;;;;;;;5034669;28;20041;-62
2022/04/04 02:38:34;;;;;;;4.68;2.20;;;;;;;;;;5034767;28;20037;-62
2022/04/04 02:41:00;;;;;;;3.72;2.28;;;;;;;;;;5034474;28;20418;-62
2022/04/04 02:43:26;;;;;;;4.30;2.03;;;;;;;;;;5033857;28;20029;-60
2022/04/04 02:45:51;;;;;;;6.35;1.80;;;;;;;;;;5034642;28;20021;-60
2022/04/04 02:48:17;;;;;;;6.53;2.45;;;;;;;;;;5034459;28;20368;-61
2022/04/04 02:50:44;;;;;;;6.70;2.00;;;;;;;;;;5034649;28;20028;-62
2022/04/04 02:53:10;;;;;;;4.05;2.30;;;;;;;;;;5034618;28;21097;-60
2022/04/04 02:58:21;;;;;;;3.47;2.28;;;;;;;;;;5034629;28;20084;-62
2022/04/04 03:00:46;;;;;;;8.48;2.20;;;;;;;;;;5034387;28;20033;-60
2022/04/04 03:03:12;;;;;;;5.75;2.20;;;;;;;;;;5034290;28;20061;-62
2022/04/04 03:05:38;;;;;;;4.07;2.30;;;;;;;;;;5034289;28;20083;-61
2022/04/04 03:08:04;;;;;;;6.03;2.25;;;;;;;;;;5034346;28;20038;-60
2022/04/04 03:10:31;;;;;;;7.25;2.10;;;;;;;;;;5034020;28;20029;-60
2022/04/04 03:12:59;;;;;;;4.45;2.25;;;;;;;;;;5034196;28;20032;-61
2022/04/04 03:15:25;;;;;;;7.07;2.30;;;;;;;;;;5034186;28;20025;-62
2022/04/04 03:17:53;;;;;;;2.58;1.70;;;;;;;;;;5034115;28;20021;-60
2022/04/04 03:20:20;;;;;;;4.90;2.08;;;;;;;;;;5033712;28;20042;-60
2022/04/04 03:22:54;;;;;;;4.63;2.00;;;;;;;;;;5033746;28;20025;-60
2022/04/04 03:25:20;;;;;;;6.88;2.30;;;;;;;;;;5034094;28;20033;-60
2022/04/04 03:27:47;;;;;;;4.00;1.95;;;;;;;;;;5033753;28;20021;-60
2022/04/04 03:30:14;;;;;;;4.13;1.88;;;;;;;;;;5033830;28;20064;-60
2022/04/04 03:32:40;;;;;;;6.28;2.47;;;;;;;;;;5033859;28;20029;-62
2022/04/04 03:35:06;;;;;;;4.22;2.28;;;;;;;;;;5033857;28;20030;-62
2022/04/04 03:37:34;;;;;;;2.92;1.73;;;;;;;;;;5033615;28;20037;-62
2022/04/04 03:39:59;;;;;;;5.43;2.45;;;;;;;;;;5033640;28;20411;-62
2022/04/04 03:42:25;;;;;;;4.53;1.73;;;;;;;;;;5033430;28;20041;-62
2022/04/04 03:44:51;;;;;;;5.57;2.33;;;;;;;;;;5033373;28;20090;-62
2022/04/04 03:47:16;;;;;;;5.18;2.40;;;;;;;;;;5033493;28;20056;-61
2022/04/04 03:49:42;;;;;;;6.47;2.50;;;;;;;;;;5033413;28;20064;-62
2022/04/04 03:52:08;;;;;;;6.32;2.63;;;;;;;;;;5033280;28;20018;-62
2022/04/04 03:54:34;;;;;;;2.45;1.90;;;;;;;;;;5033327;28;20032;-60
2022/04/04 03:57:00;;;;;;;6.75;2.92;;;;;;;;;;5033230;28;20032;-62
2022/04/04 03:59:26;;;;;;;4.15;2.53;;;;;;;;;;5033269;28;20025;-62
2022/04/04 04:01:51;;;;;;;4.53;2.50;;;;;;;;;;5033154;28;20418;-62
2022/04/04 04:04:17;;;;;;;11.38;3.42;;;;;;;;;;5033205;28;20034;-60
2022/04/04 04:06:43;;;;;;;4.38;2.67;;;;;;;;;;5032909;28;20025;-61
2022/04/04 04:09:09;;;;;;;7.65;2.72;;;;;;;;;;5033106;28;20022;-62
2022/04/04 04:11:34;;;;;;;3.67;2.85;;;;;;;;;;5033149;28;20029;-62
2022/04/04 04:14:00;;;;;;;8.23;5.72;;;;;;;;;;5033144;28;20025;-61
2022/04/04 04:16:27;;;;;;;5.07;2.90;;;;;;;;;;5032963;28;20120;-62
2022/04/04 04:18:53;;;;;;;5.78;2.90;;;;;;;;;;5032556;28;20053;-60
2022/04/04 04:21:19;;;;;;;6.05;3.17;;;;;;;;;;5032590;28;20025;-60
2022/04/04 04:23:46;;;;;;;5.15;3.60;;;;;;;;;;5032835;28;20045;-62
2022/04/04 04:26:16;;;;;;;5.80;2.28;;;;;;;;;;5032750;28;20097;-62
2022/04/04 04:28:44;;;;;;;6.63;2.60;;;;;;;;;;5032767;28;20025;-62
2022/04/04 04:31:10;;;;;;;7.80;3.30;;;;;;;;;;5032434;28;20060;-61
2022/04/04 04:33:35;;;;;;;5.57;3.20;;;;;;;;;;5032513;28;20482;-60
2022/04/04 04:36:01;;;;;;;7.00;2.90;;;;;;;;;;5032384;28;20155;-62
2022/04/04 04:38:27;;;;;;;5.30;2.75;;;;;;;;;;5032340;28;20049;-60
2022/04/04 04:40:53;;;;;;;5.13;3.17;;;;;;;;;;5032452;28;20029;-62
2022/04/04 04:43:19;;;;;;;7.28;3.70;;;;;;;;;;5032364;28;20033;-61
2022/04/04 04:45:45;;;;;;;6.13;3.13;;;;;;;;;;5032451;28;20029;-61
2022/04/04 04:48:11;;;;;;;4.43;2.33;;;;;;;;;;5032622;28;20045;-60
2022/04/04 04:50:36;;;;;;;5.30;2.67;;;;;;;;;;5032341;28;20034;-61
2022/04/04 04:53:02;;;;;;;5.10;2.92;;;;;;;;;;5032541;28;20486;-61
2022/04/04 04:55:28;;;;;;;7.57;2.92;;;;;;;;;;5032508;28;20040;-61
2022/04/04 04:57:54;;;;;;;7.05;2.80;;;;;;;;;;5032466;28;20029;-60
2022/04/04 05:00:22;;;;;;;5.10;3.00;;;;;;;;;;5032439;28;20045;-61
2022/04/04 05:03:24;;;;;;;6.20;3.05;;;;;;;;;;5032299;28;20033;-62
2022/04/04 05:05:34;;;;;;;8.55;3.08;;;;;;;;;;5033241;28;20035;-61
2022/04/04 05:07:59;;;;;;;8.77;3.78;;;;;;;;;;5036340;28;20096;-61
2022/04/04 05:10:25;;;;;;;4.75;2.92;;;;;;;;;;5036474;28;20032;-62
2022/04/04 05:12:50;;;;;;;10.98;3.45;;;;;;;;;;5036420;28;20022;-61
2022/04/04 05:15:16;;;;;;;5.88;2.60;;;;;;;;;;5036383;28;20394;-62
2022/04/04 05:17:42;;;;;;;7.28;3.17;;;;;;;;;;5036244;28;20455;-63
2022/04/04 05:20:08;;;;;;;6.53;3.28;;;;;;;;;;5035414;28;20057;-62
2022/04/04 05:22:35;;;;;;;6.40;3.30;;;;;;;;;;5036010;28;20042;-62
2022/04/04 05:25:00;;;;;;;8.00;3.38;;;;;;;;;;5035987;28;20064;-62
2022/04/04 05:27:26;;;;;;;8.80;3.60;;;;;;;;;;5035996;28;20056;-63
2022/04/04 05:29:51;;;;;;;5.30;2.88;;;;;;;;;;5035952;28;20481;-63
2022/04/04 05:32:17;;;;;;;8.50;3.15;;;;;;;;;;5035996;28;20021;-63
2022/04/04 05:34:42;;;;;;;6.72;3.70;;;;;;;;;;5035856;28;20374;-63
2022/04/04 05:37:08;;;;;;;7.28;4.18;;;;;;;;;;5035886;28;20391;-62
2022/04/04 05:39:33;;;;;;;7.25;4.10;;;;;;;;;;5035753;28;20091;-62
2022/04/04 05:41:59;;;;;;;6.00;3.88;;;;;;;;;;5035807;28;20056;-62
2022/04/04 05:44:26;;;;;;;3.42;2.70;;;;;;;;;;5035689;28;20030;-61
2022/04/04 05:46:52;;;;;;;7.78;3.75;;;;;;;;;;5035749;28;20047;-62
2022/04/04 05:49:18;;;;;;;5.45;3.67;;;;;;;;;;5035475;28;20018;-62
2022/04/04 05:51:44;;;;;;;9.13;4.25;;;;;;;;;;5035579;28;20044;-62
2022/04/04 05:54:09;;;;;;;11.05;4.30;;;;;;;;;;5034291;28;20029;-62
2022/04/04 05:56:37;;;;;;;6.80;3.97;;;;;;;;;;5035505;28;20026;-62
2022/04/04 05:59:03;;;;;;;6.28;3.60;;;;;;;;;;5035502;28;20390;-62
2022/04/04 06:01:28;;;;;;;9.32;3.85;;;;;;;;;;5035413;28;20029;-63
2022/04/04 06:03:54;;;;;;;10.68;5.88;;;;;;;;;;5035299;28;20033;-63
2022/04/04 06:06:19;;;;;;;7.13;3.90;;;;;;;;;;5035413;28;20116;-63
2022/04/04 06:08:45;;;;;;;6.82;3.85;;;;;;;;;;5035338;28;20033;-63
2022/04/04 06:11:10;;;;;;;5.93;3.78;;;;;;;;;;5033975;28;20041;-63
2022/04/04 06:13:36;;;;;;;7.20;4.15;;;;;;;;;;5035258;28;20086;-63
2022/04/04 06:16:01;;;;;;;6.78;3.72;;;;;;;;;;5035196;28;20032;-63
2022/04/04 06:18:27;;;;;;;7.40;3.97;;;;;;;;;;5033386;28;20112;-63
2022/04/04 06:20:52;;;;;;;5.57;3.67;;;;;;;;;;5035076;28;20029;-63
2022/04/04 06:23:18;;;;;;;6.43;3.45;;;;;;;;;;5035178;28;20104;-63
2022/04/04 06:25:48;;;;;;;8.00;3.60;;;;;;;;;;5034986;28;20065;-63
2022/04/04 06:28:14;;;;;;;7.80;3.47;;;;;;;;;;5034929;28;20382;-64
2022/04/04 06:30:39;;;;;;;3.13;2.35;;;;;;;;;;5034967;28;20026;-63
2022/04/04 06:33:05;;;;;;;6.88;3.65;;;;;;;;;;5034659;28;20142;-63
2022/04/04 06:35:31;;;;;;;3.58;2.72;;;;;;;;;;5034868;28;20036;-62
2022/04/04 06:37:57;;;;;;;6.32;3.38;;;;;;;;;;5034823;28;20037;-63
2022/04/04 06:40:22;;;;;;;5.50;2.42;;;;;;;;;;5034763;28;20463;-63
2022/04/04 06:42:49;;;;;;;4.63;3.13;;;;;;;;;;5034650;28;20061;-63
2022/04/04 06:45:17;;;;;;;5.38;3.00;;;;;;;;;;5034751;28;20530;-63
2022/04/04 06:47:43;;;;;;;7.00;3.55;;;;;;;;;;5034366;28;20084;-62
2022/04/04 06:50:09;;;;;;;5.43;2.97;;;;;;;;;;5034552;28;20022;-63
2022/04/04 06:52:34;;;;;;;6.35;3.65;;;;;;;;;;5034667;28;20027;-63
2022/04/04 06:55:01;;;;;;;7.93;4.20;;;;;;;;;;5034502;28;20028;-63
2022/04/04 06:57:27;;;;;;;5.50;3.42;;;;;;;;;;5034478;28;20392;-61
2022/04/04 06:59:52;;;;;;;5.60;3.55;;;;;;;;;;5034329;28;20072;-61
2022/04/04 07:02:18;;;;;;;5.15;2.95;;;;;;;;;;5034038;28;20029;-62
2022/04/04 07:04:44;;;;;;;9.20;3.85;;;;;;;;;;5034440;28;20434;-61
2022/04/04 07:07:09;;;;;;;4.97;2.40;;;;;;;;;;5034268;28;20154;-62
2022/04/04 07:09:36;;;;;;;6.22;3.30;;;;;;;;;;5034356;28;20604;-61
2022/04/04 07:12:02;;;;;;;5.22;3.60;;;;;;;;;;5034311;28;20028;-61
2022/04/04 07:14:29;;;;;;;6.20;3.25;;;;;;;;;;5034152;28;20424;-61
2022/04/04 07:16:55;;;;;;;10.82;3.17;;;;;;;;;;5033970;28;20034;-63
2022/04/04 07:19:22;;;;;;;3.67;2.38;;;;;;;;;;5033623;28;20037;-61
2022/04/04 07:21:51;;;;;;;5.97;3.08;;;;;;;;;;5033832;28;20029;-61
2022/04/04 07:24:18;;;;;;;6.15;2.97;;;;;;;;;;5033967;28;20025;-64
2022/04/04 07:26:43;;;;;;;7.13;3.67;;;;;;;;;;5033868;28;20022;-62
2022/04/04 07:29:09;;;;;;;5.03;3.47;;;;;;;;;;5033321;28;20032;-62
2022/04/04 07:31:36;;;;;;;5.45;3.70;;;;;;;;;;5033927;28;20379;-61
2022/04/04 07:34:02;;;;;;;7.72;3.63;;;;;;;;;;5033891;28;20032;-62
2022/04/04 07:36:28;;;;;;;5.55;3.85;;;;;;;;;;5032385;28;20025;-61
2022/04/04 07:38:54;;;;;;;6.22;3.88;;;;;;;;;;5033679;28;20117;-63
2022/04/04 07:41:20;;;;;;;4.20;3.22;;;;;;;;;;5033509;28;20449;-62
2022/04/04 07:43:45;;;;;;;4.90;3.05;;;;;;;;;;5033292;28;20029;-60
2022/04/04 07:46:11;;;;;;;6.82;3.65;;;;;;;;;;5033504;28;20423;-61
2022/04/04 07:48:39;;;;;;;7.95;3.70;;;;;;;;;;5033200;28;20100;-61
2022/04/04 07:51:04;;;;;;;6.35;4.35;;;;;;;;;;5031930;28;20025;-61
2022/04/04 07:53:30;;;;;;;7.63;4.30;;;;;;;;;;5033156;28;20376;-62
2022/04/04 07:55:55;;;;;;;8.23;3.80;;;;;;;;;;5033318;28;20029;-63
2022/04/04 07:58:22;;;;;;;7.65;4.07;;;;;;;;;;5025187;28;20025;-61
2022/04/04 08:00:48;;;;;;;6.75;4.03;;;;;;;;;;5028339;28;20029;-61
2022/04/04 08:03:13;;;;;;;5.32;3.10;;;;;;;;;;5026087;28;20391;-61
2022/04/04 08:05:39;;;;;;;5.28;3.60;;;;;;;;;;5023598;28;20018;-63
2022/04/04 08:08:05;;;;;;;7.40;4.15;;;;;;;;;;5022149;28;20029;-59
2022/04/04 08:10:30;;;;;;;4.68;3.47;;;;;;;;;;5032336;28;20024;-60
2022/04/04 08:12:56;;;;;;;6.13;4.10;;;;;;;;;;5032082;28;20036;-61
2022/04/04 08:15:21;;;;;;;6.18;3.35;;;;;;;;;;5032282;28;20033;-60
2022/04/04 08:17:47;;;;;;;8.20;3.95;;;;;;;;;;5012937;28;20037;-63
2022/04/04 08:20:13;;;;;;;7.03;3.90;;;;;;;;;;5027216;28;20143;-60
2022/04/04 08:22:43;;;;;;;6.93;2.95;;;;;;;;;;5031282;28;20127;-60
2022/04/04 08:25:10;;;;;;;7.15;4.60;;;;;;;;;;5031112;28;20207;-61
2022/04/04 08:27:36;;;;;;;7.95;4.22;;;;;;;;;;5031124;28;20105;-61
2022/04/04 08:30:06;;;;;;;8.93;5.22;;;;;;;;;;5031176;28;20182;-61
2022/04/04 08:32:32;;;;;;;;;;;;;;;;;;5029135;28;20021;-62
2022/04/04 08:34:58;;;;;;;7.00;4.40;;;;;;;;;;5031113;28;20044;-62
2022/04/04 08:37:24;;;;;;;9.32;4.30;;;;;;;;;;5031093;28;20100;-63
2022/04/04 08:39:50;;;;;;;6.20;4.43;;;;;;;;;;5030413;28;20447;-63
2022/04/04 08:42:17;;;;;;;4.78;3.80;;;;;;;;;;5030827;28;20047;-61
2022/04/04 08:44:44;;;;;;;9.60;4.63;;;;;;;;;;5029936;28;20022;-62
2022/04/04 08:47:10;;;;;;;5.03;3.88;;;;;;;;;;5031002;28;20037;-63
2022/04/04 08:49:35;;;;;;;8.40;4.47;;;;;;;;;;5031079;28;20030;-63
2022/04/04 08:52:02;;;;;;;8.45;4.18;;;;;;;;;;5020764;28;20032;-63
2022/04/04 08:54:27;;;;;;;11.20;3.80;;;;;;;;;;5021884;28;20501;-63
2022/04/04 08:56:53;;;;;;;6.95;3.67;;;;;;;;;;5020217;28;20022;-62
2022/04/04 08:59:19;;;;;;;5.38;4.00;;;;;;;;;;5030828;28;20421;-61
2022/04/04 09:01:44;;;;;;;6.20;4.07;;;;;;;;;;5029551;28;20112;-61
2022/04/04 09:04:10;;;;;;;5.40;3.72;;;;;;;;;;5020764;28;20038;-62
2022/04/04 09:06:55;;;;;;;6.80;3.75;;;;;;;;;;5020241;28;20013;-61
2022/04/04 09:09:24;;;;;;;6.88;4.15;;;;;;;;;;5022240;28;20018;-61
2022/04/04 09:11:52;;;;;;;12.27;4.18;;;;;;;;;;5020585;28;20021;-62
2022/04/04 09:14:21;;;;;;;6.65;4.22;;;;;;;;;;5021729;28;20083;-59
2022/04/04 09:16:55;;;;;;;7.10;3.80;;;;;;;;;;5024005;28;20036;-61
2022/04/04 09:19:30;;;;;;;9.40;4.03;;;;;;;;;;5024481;28;20050;-59
2022/04/04 09:21:56;;;;;;;6.43;4.32;;;;;;;;;;5023387;28;20057;-59
2022/04/04 09:24:41;;;;;;;5.75;4.18;;;;;;;;;;5021508;28;20025;-60
2022/04/04 09:27:21;;;;;;;7.05;4.57;;;;;;;;;;5022217;28;20121;-63
2022/04/04 09:29:48;;;;;;;8.02;4.30;;;;;;;;;;5021748;28;20088;-62
2022/04/04 09:32:15;;;;;;;7.97;4.78;;;;;;;;;;5020877;28;20030;-61
2022/04/04 09:34:57;;;;;;;11.25;5.38;;;;;;;;;;5019676;28;20026;-60
2022/04/04 09:37:24;;;;;;;8.80;4.82;;;;;;;;;;5019597;28;20487;-62
2022/04/04 09:40:05;;;;;;;9.95;5.32;;;;;;;;;;5020587;28;20555;-61
2022/04/04 09:42:32;;;;;;;16.40;4.65;;;;;;;;;;5022214;28;20017;-61
2022/04/04 09:44:59;;;;;;;7.68;5.47;;;;;;;;;;5019719;28;20109;-60
2022/04/04 09:47:44;;;;;;;10.32;4.88;;;;;;;;;;5022317;28;20029;-61
2022/04/04 09:50:10;;;;;;;6.90;5.03;;;;;;;;;;5021449;28;20029;-64
2022/04/04 09:52:51;;;;;;;8.95;5.47;;;;;;;;;;5023968;28;20371;-62
2022/04/04 09:55:33;;;;;;;9.95;5.25;;;;;;;;;;5025108;28;20029;-63
2022/04/04 09:58:01;;;;;;;8.98;5.30;;;;;;;;;;5028031;28;20374;-61
2022/04/04 10:00:27;;;;;;;8.40;4.85;;;;;;;;;;5034918;28;20113;-63
2022/04/04 10:02:56;;;;;;;10.65;5.15;;;;;;;;;;5035002;28;20036;-61
2022/04/04 10:05:26;;;;;;;6.78;5.57;;;;;;;;;;5035430;28;20083;-62
2022/04/04 10:07:56;;;;;;;11.53;5.93;;;;;;;;;;5035017;28;20101;-61
2022/04/04 10:10:27;;;;;;;9.82;5.82;;;;;;;;;;5034802;28;20612;-62
2022/04/04 10:12:54;;;;;;;7.95;5.30;;;;;;;;;;5034997;28;20099;-59
2022/04/04 10:15:21;;;;;;;11.43;5.53;;;;;;;;;;5035223;28;20562;-60
2022/04/04 10:17:49;;;;;;;6.78;4.97;;;;;;;;;;5033125;28;20037;-59
2022/04/04 10:20:15;;;;;;;9.50;5.78;;;;;;;;;;5031229;28;20041;-59
2022/04/04 10:22:40;;;;;;;8.82;6.18;;;;;;;;;;5033440;28;20087;-59
2022/04/04 10:25:07;;;;;;;10.10;5.45;;;;;;;;;;5033284;28;20112;-58
2022/04/04 10:27:37;;;;;;;8.57;5.22;;;;;;;;;;5031874;28;20359;-61
2022/04/04 10:30:07;;;;;;;9.10;5.40;;;;;;;;;;5033935;28;20026;-59
2022/04/04 10:32:33;;;;;;;9.65;5.72;;;;;;;;;;5034868;28;20025;-59
2022/04/04 10:35:09;;;;;;;10.35;5.45;;;;;;;;;;5034824;28;20477;-60
2022/04/04 10:37:45;;;;;;;8.75;5.30;;;;;;;;;;5034119;28;20558;-60
2022/04/04 10:40:24;;;;;;;8.48;6.20;;;;;;;;;;5034653;28;20038;-59
2022/04/04 10:43:08;;;;;;;6.88;5.80;;;;;;;;;;5034659;28;20136;-60
2022/04/04 10:45:57;;;;;;;9.73;5.38;;;;;;;;;;5034657;28;20452;-61
2022/04/04 10:48:35;;;;;;;8.43;5.90;;;;;;;;;;5034317;28;20034;-59
2022/04/04 10:51:17;;;;;;;8.52;6.03;;;;;;;;;;5034500;28;20037;-60
2022/04/04 10:53:53;;;;;;;11.73;5.57;;;;;;;;;;5034178;28;20052;-59
2022/04/04 10:56:33;;;;;;;10.63;5.90;;;;;;;;;;5033929;28;20033;-60
2022/04/04 10:59:19;;;;;;;7.65;4.93;;;;;;;;;;5034362;28;20483;-59
2022/04/04 11:01:49;;;;;;;8.18;4.38;;;;;;;;;;5034215;28;20033;-59
2022/04/04 11:04:31;;;;;;;8.75;4.82;;;;;;;;;;5033441;28;20026;-60
2022/04/04 11:10:08;;;;;;;8.50;4.90;;;;;;;;;;5023975;28;20036;-60
2022/04/04 11:13:05;;;;;;;9.23;5.18;;;;;;;;;;5023814;28;20078;-60
2022/04/04 11:15:44;;;;;;;10.25;4.72;;;;;;;;;;5031462;28;20071;-60
2022/04/04 11:18:13;;;;;;;5.30;3.80;;;;;;;;;;5031002;28;20088;-61
2022/04/04 11:20:54;;;;;;;5.63;4.03;;;;;;;;;;5032060;28;20162;-60
2022/04/04 11:23:22;;;;;;;9.02;5.10;;;;;;;;;;5029360;28;20104;-61
2022/04/04 11:25:52;;;;;;;7.75;4.97;;;;;;;;;;5032388;28;20040;-60
2022/04/04 11:28:24;;;;;;;10.30;5.40;;;;;;;;;;5032069;28;20030;-60
2022/04/04 11:30:54;;;;;;;11.30;5.60;;;;;;;;;;5032336;28;20026;-61
2022/04/04 11:33:23;;;;;;;7.50;5.27;;;;;;;;;;5033685;28;20518;-61
2022/04/04 11:35:50;;;;;;;13.40;4.70;;;;;;;;;;5033324;28;20080;-61
2022/04/04 11:38:19;;;;;;;9.57;4.70;;;;;;;;;;5033448;28;20044;-61
2022/04/04 11:40:52;;;;;;;10.07;5.57;;;;;;;;;;5027848;28;20458;-61
2022/04/04 11:43:20;;;;;;;7.15;4.45;;;;;;;;;;5030924;28;20096;-61
2022/04/04 11:45:47;;;;;;;12.63;5.63;;;;;;;;;;5031795;28;20021;-61
2022/04/04 11:48:26;;;;;;;19.35;6.13;;;;;;;;;;5032530;28;20064;-61
2022/04/04 11:50:57;;;;;;;8.45;5.22;;;;;;;;;;5032988;28;20032;-62
2022/04/04 11:53:25;;;;;;;7.65;5.20;;;;;;;;;;5033220;28;20083;-61
2022/04/04 11:56:00;;;;;;;11.45;5.88;;;;;;;;;;5033050;28;20486;-61
2022/04/04 11:58:27;;;;;;;11.85;6.13;;;;;;;;;;5033049;28;20041;-61
2022/04/04 12:01:00;;;;;;;12.32;6.57;;;;;;;;;;5032831;28;20029;-61
2022/04/04 12:03:27;;;;;;;10.90;6.60;;;;;;;;;;5033071;28;20464;-61
2022/04/04 12:05:53;;;;;;;13.65;6.45;;;;;;;;;;5032650;28;20033;-62
2022/04/04 12:08:21;;;;;;;12.60;7.28;;;;;;;;;;5032145;28;20122;-60
2022/04/04 12:10:49;;;;;;;9.35;5.53;;;;;;;;;;5033229;28;20467;-62
2022/04/04 12:13:22;;;;;;;10.85;6.88;;;;;;;;;;5032302;28;20057;-60
2022/04/04 12:15:50;;;;;;;12.18;7.43;;;;;;;;;;5031283;28;20110;-61
2022/04/04 12:18:26;;;;;;;10.02;6.88;;;;;;;;;;5046255;28;20036;-60
2022/04/04 12:20:57;;;;;;;14.98;6.03;;;;;;;;;;5047869;28;20066;-60
2022/04/04 12:26:13;;;;;;;10.35;6.57;;;;;;;;;;5034838;28;20036;-61
2022/04/04 12:28:52;;;;;;;9.43;6.90;;;;;;;;;;5047324;28;20018;-60
2022/04/04 12:31:26;;;;;;;16.05;7.20;;;;;;;;;;5041030;28;20449;-59
2022/04/04 12:34:10;;;;;;;11.18;6.90;;;;;;;;;;5036814;28;20033;-62
2022/04/04 12:36:39;;;;;;;10.70;5.68;;;;;;;;;;5018800;28;20021;-61
2022/04/04 12:39:07;;;;;;;12.13;7.82;;;;;;;;;;5043502;28;20400;-60
2022/04/04 12:41:46;;;;;;;10.98;7.78;;;;;;;;;;5042485;28;20581;-60
2022/04/04 12:44:17;;;;;;;9.40;7.53;;;;;;;;;;5034478;28;20104;-60
2022/04/04 12:46:42;;;;;;;11.90;7.10;;;;;;;;;;5046501;28;20060;-62
2022/04/04 12:49:13;;;;;;;10.98;6.57;;;;;;;;;;5038970;28;20060;-60
2022/04/04 12:51:40;;;;;;;11.18;8.38;;;;;;;;;;5038951;28;20415;-59
2022/04/04 12:54:06;;;;;;;11.57;7.28;;;;;;;;;;5033395;28;20428;-60
2022/04/04 12:56:47;;;;;;;14.50;8.70;;;;;;;;;;5026168;28;20076;-60
2022/04/04 12:59:13;;;;;;;13.38;8.52;;;;;;;;;;5031656;28;20053;-60
2022/04/04 13:01:39;;;;;;;17.48;9.27;;;;;;;;;;5034767;28;20079;-59
2022/04/04 13:04:19;;;;;;;13.90;8.52;;;;;;;;;;5043382;28;20497;-60
2022/04/04 13:06:45;;;;;;;16.13;9.32;;;;;;;;;;5035411;28;20417;-60
2022/04/04 13:09:11;;;;;;;14.38;8.65;;;;;;;;;;5046791;28;20036;-61
2022/04/04 13:11:47;;;;;;;15.13;9.20;;;;;;;;;;5040521;28;20024;-62
2022/04/04 13:14:13;;;;;;;13.85;8.88;;;;;;;;;;5037916;28;20025;-61
2022/04/04 13:17:03;;;;;;;14.52;8.50;;;;;;;;;;5048277;28;20017;-61
2022/04/04 13:19:29;;;;;;;15.10;9.07;;;;;;;;;;5032442;28;20508;-61
2022/04/04 13:21:55;;;;;;;12.43;8.55;;;;;;;;;;5047218;28;20087;-61
2022/04/04 13:24:23;;;;;;;16.45;10.50;;;;;;;;;;5037037;28;20025;-62
2022/04/04 13:26:49;;;;;;;16.20;10.75;;;;;;;;;;5041884;28;20017;-62
2022/04/04 13:29:16;;;;;;;15.43;10.18;;;;;;;;;;5050145;28;20040;-62
2022/04/04 13:31:43;;;;;;;14.57;8.65;;;;;;;;;;5044883;28;20078;-61
2022/04/04 13:34:10;;;;;;;14.68;8.43;;;;;;;;;;5042332;28;20436;-62
2022/04/04 13:36:37;;;;;;;14.18;8.82;;;;;;;;;;5052081;28;20021;-61
2022/04/04 13:39:04;;;;;;;12.80;7.95;;;;;;;;;;5039342;28;20021;-62
2022/04/04 13:41:34;;;;;;;11.18;6.47;;;;;;;;;;5047680;28;20033;-62
2022/04/04 13:44:01;;;;;;;11.47;7.17;;;;;;;;;;5044850;28;20057;-62
2022/04/04 13:46:28;;;;;;;10.05;6.82;;;;;;;;;;5039849;28;20275;-63
2022/04/04 13:48:55;;;;;;;13.30;8.13;;;;;;;;;;5035320;28;20026;-63
2022/04/04 13:51:24;;;;;;;11.60;6.68;;;;;;;;;;5034470;28;20497;-63
2022/04/04 13:53:55;;;;;;;14.90;7.13;;;;;;;;;;5035361;28;20030;-63
2022/04/04 13:56:21;;;;;;;9.70;7.05;;;;;;;;;;5035173;28;20113;-63
2022/04/04 13:58:47;;;;;;;8.20;5.97;;;;;;;;;;5034437;28;20032;-62
2022/04/04 14:01:17;;;;;;;9.68;6.07;;;;;;;;;;5035158;28;20029;-63
2022/04/04 14:03:43;;;;;;;15.57;6.45;;;;;;;;;;5035523;28;20471;-63
2022/04/04 14:06:12;;;;;;;11.05;5.53;;;;;;;;;;5034276;28;20038;-62
2022/04/04 14:08:39;;;;;;;9.77;5.82;;;;;;;;;;5034972;28;20063;-63
2022/04/04 14:11:07;;;;;;;7.40;5.03;;;;;;;;;;5035238;28;20416;-63
2022/04/04 14:13:40;;;;;;;7.10;4.45;;;;;;;;;;5035242;28;20443;-63
2022/04/04 14:16:06;;;;;;;11.05;5.20;;;;;;;;;;5035177;28;20116;-62
2022/04/04 14:18:32;;;;;;;9.35;5.68;;;;;;;;;;5034931;28;20130;-63
2022/04/04 14:20:58;;;;;;;9.13;5.50;;;;;;;;;;5035233;28;20025;-63
2022/04/04 14:23:25;;;;;;;11.85;6.28;;;;;;;;;;5035131;28;20056;-63
2022/04/04 14:25:50;;;;;;;15.07;6.82;;;;;;;;;;5035093;28;20029;-63
2022/04/04 14:28:16;;;;;;;9.50;6.00;;;;;;;;;;5034815;28;20032;-62
2022/04/04 14:30:43;;;;;;;10.82;6.18;;;;;;;;;;5034854;28;20463;-62
2022/04/04 14:33:08;;;;;;;7.72;5.13;;;;;;;;;;5034922;28;20025;-62
2022/04/04 14:35:34;;;;;;;9.30;6.10;;;;;;;;;;5035051;28;20097;-62
2022/04/04 14:38:00;;;;;;;10.18;6.05;;;;;;;;;;5033947;28;20537;-61
2022/04/04 14:40:26;;;;;;;13.15;5.60;;;;;;;;;;5034890;28;20033;-62
2022/04/04 14:42:52;;;;;;;10.45;6.25;;;;;;;;;;5034767;28;20443;-61
2022/04/04 14:45:17;;;;;;;8.80;6.72;;;;;;;;;;5034734;28;20378;-62
2022/04/04 14:47:43;;;;;;;8.73;6.03;;;;;;;;;;5034589;28;20505;-62
2022/04/04 14:50:10;;;;;;;11.40;6.43;;;;;;;;;;5034589;28;20022;-62
2022/04/04 14:52:39;;;;;;;10.27;6.30;;;;;;;;;;5034595;28;20048;-61